Terminal Aerodrome Forecast
Issued by NWS

Home | Current Version | Previous Version | Text Only | Print | Product List | Glossary On
Versions: 1 2 3 4 5 6 7 8 9 10 11 12 13
000
FTUS41 KPBZ 021120
TAFBVI
TAF
KBVI 021120Z 0212/0312 23005KT P6SM BKN060
     FM021500 23010KT P6SM SCT050
     FM030300 21005KT P6SM SCT250=

USA.gov is the U.S. government's official web portal to all federal, state and local government web resources and services.